createdAt,value
2022-12-24T00:01:32.688Z,80.47
2022-12-24T00:03:59.292Z,81.01
2022-12-24T00:06:25.774Z,80.89
2022-12-24T00:08:52.564Z,81.67
2022-12-24T00:11:20.740Z,80.50
2022-12-24T00:13:47.797Z,78.64
2022-12-24T00:16:14.994Z,80.56
2022-12-24T00:18:45.749Z,79.25
2022-12-24T00:21:12.966Z,79.91
2022-12-24T00:23:40.458Z,78.52
2022-12-24T00:26:07.457Z,81.21
2022-12-24T00:28:33.973Z,79.03
2022-12-24T00:31:00.516Z,77.75
2022-12-24T00:33:27.799Z,77.98
2022-12-24T00:35:55.167Z,80.03
2022-12-24T00:38:21.767Z,79.03
2022-12-24T00:40:48.249Z,78.73
2022-12-24T00:43:15.424Z,78.51
2022-12-24T00:45:42.679Z,79.06
2022-12-24T00:48:09.238Z,79.70
2022-12-24T00:50:35.723Z,78.66
2022-12-24T00:53:02.217Z,79.87
2022-12-24T00:55:28.727Z,79.92
2022-12-24T00:57:55.178Z,79.47
2022-12-24T01:00:21.803Z,79.32
2022-12-24T01:02:48.415Z,78.48
2022-12-24T01:05:15.134Z,80.22
2022-12-24T01:07:44.322Z,79.54
2022-12-24T01:10:13.072Z,79.64
2022-12-24T01:12:40.674Z,78.94
2022-12-24T01:15:08.169Z,79.24
2022-12-24T01:17:35.077Z,80.17
2022-12-24T01:20:01.907Z,77.69
2022-12-24T01:22:28.389Z,76.57
2022-12-24T01:24:54.915Z,77.23
2022-12-24T01:27:21.476Z,78.53
2022-12-24T01:29:47.937Z,77.99
2022-12-24T01:32:14.445Z,79.19
2022-12-24T01:34:41.055Z,78.06
2022-12-24T01:37:07.486Z,76.77
2022-12-24T01:39:34.088Z,79.22
2022-12-24T01:42:19.285Z,78.41
2022-12-24T01:44:48.541Z,77.97
2022-12-24T01:47:19.854Z,76.40
2022-12-24T01:50:12.578Z,77.49
2022-12-24T01:52:39.400Z,77.48
2022-12-24T01:55:09.516Z,77.43
2022-12-24T01:57:42.447Z,76.93
2022-12-24T02:00:12.299Z,76.99
2022-12-24T02:02:45.190Z,77.09
2022-12-24T02:05:15.657Z,76.19
2022-12-24T02:07:42.345Z,77.35
2022-12-24T02:10:11.182Z,77.39
2022-12-24T02:12:38.020Z,77.08
2022-12-24T02:15:06.855Z,76.80
2022-12-24T02:17:43.387Z,76.92
2022-12-24T02:20:40.194Z,76.35
2022-12-24T02:23:34.771Z,77.46
2022-12-24T02:26:25.629Z,76.78
2022-12-24T02:29:20.233Z,76.57
2022-12-24T02:31:59.545Z,76.38
2022-12-24T02:34:32.068Z,75.36
2022-12-24T02:37:18.392Z,77.67
2022-12-24T02:39:57.116Z,78.02
2022-12-24T02:42:32.371Z,77.62
2022-12-24T02:45:11.439Z,75.98
2022-12-24T02:47:38.408Z,75.18
2022-12-24T02:50:07.908Z,76.57
2022-12-24T02:52:35.706Z,75.59
2022-12-24T02:55:27.978Z,76.42
2022-12-24T02:58:18.498Z,77.23
2022-12-24T03:01:17.419Z,76.75
2022-12-24T03:04:39.200Z,74.41
2022-12-24T03:07:23.627Z,77.04
2022-12-24T03:10:04.692Z,76.44
2022-12-24T03:12:44.395Z,76.30
2022-12-24T03:15:13.744Z,75.69
2022-12-24T03:17:42.836Z,75.18
2022-12-24T03:20:11.304Z,76.13
2022-12-24T03:22:38.164Z,75.74
2022-12-24T03:25:05.305Z,75.45
2022-12-24T03:27:32.870Z,77.75
2022-12-24T03:29:59.578Z,77.68
2022-12-24T03:32:29.959Z,76.31
2022-12-24T03:34:56.742Z,76.67
2022-12-24T03:37:23.993Z,75.33
2022-12-24T03:39:50.490Z,75.65
2022-12-24T03:42:16.989Z,75.79
2022-12-24T03:44:43.568Z,74.55
2022-12-24T03:47:10.046Z,75.09
2022-12-24T03:49:36.491Z,74.93
2022-12-24T03:52:03.243Z,76.57
2022-12-24T03:54:29.750Z,78.32
2022-12-24T03:56:56.209Z,77.06
2022-12-24T03:59:22.667Z,75.19
2022-12-24T04:01:49.428Z,74.95
2022-12-24T04:04:16.266Z,75.09
2022-12-24T04:06:42.804Z,74.82
2022-12-24T04:09:09.283Z,74.69
2022-12-24T04:11:35.780Z,75.76
2022-12-24T04:14:02.228Z,75.20
2022-12-24T04:16:28.705Z,76.67
2022-12-24T04:18:55.249Z,76.21
2022-12-24T04:21:21.736Z,76.65
2022-12-24T04:23:48.322Z,74.57
2022-12-24T04:26:15.044Z,74.87
2022-12-24T04:28:42.594Z,74.54
2022-12-24T04:31:12.287Z,75.03
2022-12-24T04:33:38.827Z,75.59
2022-12-24T04:36:07.022Z,75.45
2022-12-24T04:38:34.262Z,74.37
2022-12-24T04:41:03.234Z,74.18
2022-12-24T04:43:30.300Z,73.48
2022-12-24T04:45:57.042Z,74.02
2022-12-24T04:48:23.544Z,74.34
2022-12-24T04:50:50.013Z,76.04
2022-12-24T04:53:16.548Z,76.08
2022-12-24T04:55:46.070Z,76.09
2022-12-24T04:58:13.140Z,75.27
2022-12-24T05:00:40.389Z,75.41
2022-12-24T05:03:07.242Z,75.40
2022-12-24T05:05:33.754Z,75.03
2022-12-24T05:08:00.250Z,74.67
2022-12-24T05:10:26.762Z,75.09
2022-12-24T05:12:53.464Z,75.01
2022-12-24T05:15:19.927Z,75.75
2022-12-24T05:17:46.399Z,74.76
2022-12-24T05:20:12.844Z,74.22
2022-12-24T05:22:58.073Z,76.04
2022-12-24T05:25:43.009Z,75.41
2022-12-24T05:28:09.472Z,75.54
2022-12-24T05:30:35.947Z,74.47
2022-12-24T05:33:02.468Z,74.58
2022-12-24T05:35:28.909Z,75.23
2022-12-24T05:37:58.285Z,75.09
2022-12-24T05:40:24.915Z,76.08
2022-12-24T05:42:51.377Z,75.45
2022-12-24T05:45:17.871Z,75.61
2022-12-24T05:47:44.282Z,75.87
2022-12-24T05:50:11.118Z,74.83
2022-12-24T05:52:37.553Z,75.66
2022-12-24T05:55:04.752Z,75.55
2022-12-24T05:57:31.184Z,75.32
2022-12-24T05:59:57.639Z,75.92
2022-12-24T06:02:24.183Z,75.11
2022-12-24T06:04:50.722Z,76.24
2022-12-24T06:07:17.206Z,76.28
2022-12-24T06:09:43.679Z,76.59
2022-12-24T06:12:10.107Z,75.28
2022-12-24T06:14:36.567Z,75.47
2022-12-24T06:17:03.044Z,76.35
2022-12-24T06:19:29.541Z,75.24
2022-12-24T06:21:55.973Z,75.26
2022-12-24T06:24:22.448Z,76.55
2022-12-24T06:26:48.878Z,77.12
2022-12-24T06:29:15.348Z,77.12
2022-12-24T06:31:41.847Z,78.10
2022-12-24T06:34:08.343Z,78.48
2022-12-24T06:36:34.851Z,77.99
2022-12-24T06:39:01.423Z,79.47
2022-12-24T06:41:27.951Z,78.78
2022-12-24T06:43:54.492Z,78.46
2022-12-24T06:46:21.642Z,77.49
2022-12-24T06:48:48.546Z,78.82
2022-12-24T06:51:16.688Z,78.16
2022-12-24T06:53:43.153Z,78.70
2022-12-24T06:56:12.177Z,78.02
2022-12-24T06:58:39.129Z,77.66
2022-12-24T07:01:07.352Z,78.06
2022-12-24T07:03:34.309Z,78.10
2022-12-24T07:06:01.141Z,77.30
2022-12-24T07:08:27.887Z,77.16
2022-12-24T07:10:54.761Z,78.07
2022-12-24T07:13:21.479Z,78.71
2022-12-24T07:15:48.000Z,79.71
2022-12-24T07:18:14.471Z,79.48
2022-12-24T07:20:42.815Z,79.42
2022-12-24T07:23:09.272Z,79.35
2022-12-24T07:25:35.733Z,79.48
2022-12-24T07:28:02.161Z,78.45
2022-12-24T07:30:28.706Z,78.17
2022-12-24T07:32:55.162Z,78.18
2022-12-24T07:35:21.663Z,77.31
2022-12-24T07:37:48.097Z,78.04
2022-12-24T07:40:14.851Z,77.38
2022-12-24T07:42:41.301Z,78.08
2022-12-24T07:45:08.178Z,77.86
2022-12-24T07:47:35.194Z,78.98
2022-12-24T07:50:01.744Z,77.81
2022-12-24T07:52:28.186Z,77.91
2022-12-24T07:54:54.687Z,78.13
2022-12-24T07:57:21.128Z,78.31
2022-12-24T07:59:47.601Z,79.60
2022-12-24T08:02:18.213Z,78.64
2022-12-24T08:04:45.208Z,77.69
2022-12-24T08:07:11.680Z,76.83
2022-12-24T08:09:38.574Z,76.62
2022-12-24T08:12:05.297Z,77.30
2022-12-24T08:14:31.983Z,77.51
2022-12-24T08:16:58.490Z,77.44
2022-12-24T08:19:25.097Z,77.79
2022-12-24T08:21:51.571Z,77.36
2022-12-24T08:24:18.092Z,77.48
2022-12-24T08:26:44.597Z,77.20
2022-12-24T08:29:11.925Z,77.02
2022-12-24T08:31:38.576Z,78.69
2022-12-24T08:34:06.998Z,76.81
2022-12-24T08:36:34.116Z,76.56
2022-12-24T08:39:03.501Z,76.29
2022-12-24T08:41:31.337Z,77.04
2022-12-24T08:43:57.860Z,78.13
2022-12-24T08:46:24.416Z,76.89
2022-12-24T08:48:50.885Z,78.15
2022-12-24T08:51:19.202Z,77.83
2022-12-24T08:53:46.792Z,77.70
2022-12-24T08:56:13.836Z,77.05
2022-12-24T08:58:40.427Z,79.08
2022-12-24T09:01:16.363Z,77.81
2022-12-24T09:03:43.319Z,78.03
2022-12-24T09:06:10.472Z,79.30
2022-12-24T09:08:37.396Z,79.27
2022-12-24T09:11:09.588Z,78.50
2022-12-24T09:13:36.152Z,77.61
2022-12-24T09:16:02.951Z,76.71
2022-12-24T09:18:29.878Z,76.72
2022-12-24T09:21:01.193Z,76.38
2022-12-24T09:23:28.646Z,77.37
2022-12-24T09:25:55.229Z,76.88
2022-12-24T09:28:22.344Z,77.05
2022-12-24T09:30:59.964Z,76.36
2022-12-24T09:33:28.136Z,77.11
2022-12-24T09:35:54.826Z,77.39
2022-12-24T09:38:22.121Z,78.63
2022-12-24T09:40:49.367Z,78.08
2022-12-24T09:43:21.945Z,79.24
2022-12-24T09:46:14.743Z,77.04
2022-12-24T09:48:44.607Z,78.43
2022-12-24T09:51:13.243Z,79.54
2022-12-24T09:53:45.827Z,78.97
2022-12-24T09:56:38.038Z,78.24
2022-12-24T09:59:09.325Z,77.22
2022-12-24T10:01:35.970Z,78.42
2022-12-24T10:04:11.390Z,77.82
2022-12-24T10:06:54.601Z,78.62
2022-12-24T10:09:39.391Z,78.73
2022-12-24T10:12:14.387Z,77.44
2022-12-24T10:14:50.267Z,78.15
2022-12-24T10:17:32.321Z,79.58
2022-12-24T10:20:20.643Z,78.61
2022-12-24T10:22:55.157Z,79.74
2022-12-24T10:25:26.644Z,78.73
2022-12-24T10:27:54.999Z,78.85
2022-12-24T10:30:23.198Z,78.39
2022-12-24T10:32:52.026Z,77.80
2022-12-24T10:35:20.209Z,78.40
2022-12-24T10:37:48.866Z,77.11
2022-12-24T10:40:35.733Z,78.74
2022-12-24T10:43:02.429Z,76.89
2022-12-24T10:45:37.686Z,77.11
2022-12-24T10:48:07.782Z,78.57
2022-12-24T10:50:53.810Z,78.69
2022-12-24T10:53:37.104Z,78.21
2022-12-24T10:56:07.934Z,80.18
2022-12-24T10:58:35.349Z,80.16
2022-12-24T11:01:02.444Z,82.20
2022-12-24T11:03:34.932Z,78.82
2022-12-24T11:06:08.142Z,79.73
2022-12-24T11:08:36.745Z,80.45
2022-12-24T11:11:06.055Z,78.65
2022-12-24T11:13:39.532Z,80.89
2022-12-24T11:16:10.417Z,81.83
2022-12-24T11:18:40.154Z,80.78
2022-12-24T11:21:08.956Z,82.34
2022-12-24T11:23:35.552Z,79.11
2022-12-24T11:26:02.343Z,79.51
2022-12-24T11:28:33.507Z,81.06
2022-12-24T11:31:07.236Z,80.32
2022-12-24T11:33:46.922Z,79.74
2022-12-24T11:36:13.995Z,80.79
2022-12-24T11:38:41.069Z,80.23
2022-12-24T11:41:11.856Z,80.33
2022-12-24T11:43:46.364Z,81.13
2022-12-24T11:46:17.488Z,81.73
2022-12-24T11:48:44.156Z,81.81
2022-12-24T11:51:25.197Z,83.05
2022-12-24T11:54:01.049Z,82.08
2022-12-24T11:56:40.661Z,82.14
2022-12-24T11:59:39.507Z,78.59
2022-12-24T12:02:34.725Z,80.00
2022-12-24T12:05:07.982Z,81.87
2022-12-24T12:07:36.501Z,82.28
2022-12-24T12:10:21.517Z,80.84
2022-12-24T12:12:56.408Z,79.22
2022-12-24T12:15:25.722Z,79.98
2022-12-24T12:17:56.747Z,79.80
2022-12-24T12:20:47.990Z,79.77
2022-12-24T12:23:47.323Z,78.95
2022-12-24T12:26:26.620Z,81.75
2022-12-24T12:29:11.301Z,80.52
2022-12-24T12:31:55.111Z,80.15
2022-12-24T12:34:24.723Z,78.77
2022-12-24T12:36:53.433Z,80.43
2022-12-24T12:39:21.522Z,80.84
2022-12-24T12:41:55.642Z,80.19
2022-12-24T12:44:38.452Z,79.07
2022-12-24T12:47:27.416Z,80.42
2022-12-24T12:50:08.685Z,78.59
2022-12-24T12:52:47.265Z,79.19
2022-12-24T12:55:32.002Z,79.04
2022-12-24T12:58:01.601Z,81.05
2022-12-24T13:00:31.044Z,81.53
2022-12-24T13:03:09.764Z,78.67
2022-12-24T13:05:39.294Z,78.46
2022-12-24T13:08:36.728Z,78.83
2022-12-24T13:11:51.457Z,77.53
2022-12-24T13:14:30.598Z,77.32
2022-12-24T13:17:06.078Z,79.04
2022-12-24T13:19:54.575Z,78.28
2022-12-24T13:22:22.159Z,77.78
2022-12-24T13:24:52.374Z,78.33
2022-12-24T13:27:32.266Z,79.53
2022-12-24T13:30:10.004Z,78.87
2022-12-24T13:32:47.606Z,79.96
2022-12-24T13:35:20.827Z,80.34
2022-12-24T13:37:51.285Z,78.53
2022-12-24T13:40:25.350Z,78.35
2022-12-24T13:43:01.346Z,78.30
2022-12-24T13:45:31.062Z,77.49
2022-12-24T13:48:01.482Z,77.02
2022-12-24T13:51:18.211Z,78.62
2022-12-24T13:53:46.549Z,79.12
2022-12-24T13:56:15.273Z,79.60
2022-12-24T13:58:44.856Z,78.61
2022-12-24T14:01:22.480Z,78.68
2022-12-24T14:03:51.761Z,77.42
2022-12-24T14:06:36.561Z,77.31
2022-12-24T14:09:17.514Z,78.05
2022-12-24T14:12:07.903Z,78.65
2022-12-24T14:14:38.918Z,80.17
2022-12-24T14:17:27.243Z,78.61
2022-12-24T14:20:02.415Z,77.40
2022-12-24T14:22:34.528Z,78.44
2022-12-24T14:25:08.277Z,76.43
2022-12-24T14:27:48.333Z,77.61
2022-12-24T14:30:24.274Z,79.59
2022-12-24T14:32:52.371Z,78.27
2022-12-24T14:35:20.831Z,78.54
2022-12-24T14:38:06.078Z,78.96
2022-12-24T14:40:35.790Z,78.80
2022-12-24T14:43:35.165Z,77.70
2022-12-24T14:46:29.240Z,77.48
2022-12-24T14:49:01.356Z,77.72
2022-12-24T14:51:41.369Z,77.06
2022-12-24T14:54:30.360Z,77.72
2022-12-24T14:57:13.031Z,77.46
2022-12-24T15:00:01.805Z,79.71
2022-12-24T15:02:49.758Z,79.53
2022-12-24T15:05:29.415Z,78.39
2022-12-24T15:08:16.955Z,78.37
2022-12-24T15:10:45.652Z,77.61
2022-12-24T15:13:32.656Z,77.35
2022-12-24T15:16:04.574Z,76.69
2022-12-24T15:18:33.752Z,76.61
2022-12-24T15:21:04.705Z,77.22
2022-12-24T15:23:37.135Z,79.25
2022-12-24T15:26:24.725Z,78.20
2022-12-24T15:29:03.773Z,77.72
2022-12-24T15:31:32.171Z,77.29
2022-12-24T15:34:00.622Z,77.67
2022-12-24T15:36:33.008Z,79.12
2022-12-24T15:39:05.611Z,78.90
2022-12-24T15:42:00.896Z,78.54
2022-12-24T15:44:36.395Z,78.83
2022-12-24T15:47:06.584Z,79.19
2022-12-24T15:49:35.554Z,78.59
2022-12-24T15:52:08.693Z,76.79
2022-12-24T15:54:37.459Z,78.43
2022-12-24T15:57:23.129Z,78.75
2022-12-24T15:59:56.463Z,78.28
2022-12-24T16:02:33.048Z,79.46
2022-12-24T16:05:40.501Z,77.07
2022-12-24T16:08:23.265Z,79.47
2022-12-24T16:10:53.415Z,78.07
2022-12-24T16:13:23.747Z,77.19
2022-12-24T16:16:01.489Z,77.55
2022-12-24T16:18:59.917Z,76.09
2022-12-24T16:21:47.165Z,77.16
2022-12-24T16:24:20.366Z,77.91
2022-12-24T16:26:48.339Z,79.67
2022-12-24T16:29:19.563Z,79.61
2022-12-24T16:31:54.584Z,78.43
2022-12-24T16:34:25.157Z,77.57
2022-12-24T16:36:52.671Z,77.14
2022-12-24T16:39:34.727Z,76.81
2022-12-24T16:42:22.687Z,76.78
2022-12-24T16:44:53.967Z,77.69
2022-12-24T16:47:23.287Z,78.38
2022-12-24T16:49:50.999Z,78.66
2022-12-24T16:52:25.482Z,78.12
2022-12-24T16:54:54.146Z,78.01
2022-12-24T16:57:22.071Z,77.59
2022-12-24T16:59:52.447Z,78.77
2022-12-24T17:02:24.611Z,77.56
2022-12-24T17:04:52.035Z,77.76
2022-12-24T17:07:21.548Z,77.65
2022-12-24T17:09:50.899Z,77.00
2022-12-24T17:12:19.604Z,77.40
2022-12-24T17:14:55.275Z,77.49
2022-12-24T17:17:29.026Z,77.04
2022-12-24T17:19:57.592Z,76.79
2022-12-24T17:22:25.064Z,78.13
2022-12-24T17:24:52.815Z,77.84
2022-12-24T17:27:19.996Z,77.71
2022-12-24T17:29:46.909Z,78.89
2022-12-24T17:32:13.589Z,80.19
2022-12-24T17:34:48.073Z,79.52
2022-12-24T17:37:14.580Z,78.71
2022-12-24T17:39:41.072Z,78.85
2022-12-24T17:42:07.582Z,77.14
2022-12-24T17:44:34.123Z,78.21
2022-12-24T17:47:01.959Z,78.68
2022-12-24T17:49:29.349Z,78.19
2022-12-24T17:51:56.111Z,80.46
2022-12-24T17:54:22.670Z,79.54
2022-12-24T17:56:49.178Z,79.24
2022-12-24T17:59:15.965Z,79.03
2022-12-24T18:01:42.536Z,80.84
2022-12-24T18:04:10.108Z,79.85
2022-12-24T18:06:39.948Z,80.23
2022-12-24T18:09:08.474Z,81.71
2022-12-24T18:11:36.736Z,80.35
2022-12-24T18:14:05.277Z,79.60
2022-12-24T18:16:34.706Z,80.67
2022-12-24T18:19:01.570Z,80.05
2022-12-24T18:21:32.661Z,80.31
2022-12-24T18:23:59.420Z,79.62
2022-12-24T18:26:27.714Z,81.06
2022-12-24T18:28:56.183Z,80.58
2022-12-24T18:31:23.895Z,79.38
2022-12-24T18:33:51.200Z,79.30
2022-12-24T18:36:18.727Z,81.75
2022-12-24T18:38:45.311Z,80.08
2022-12-24T18:41:14.264Z,82.39
2022-12-24T18:43:41.543Z,82.79
2022-12-24T18:46:13.712Z,82.13
2022-12-24T18:48:40.367Z,83.17
2022-12-24T18:51:07.592Z,80.97
2022-12-24T18:53:34.421Z,81.64
2022-12-24T18:56:11.472Z,79.94
2022-12-24T18:58:38.042Z,80.43
2022-12-24T19:01:19.490Z,82.09
2022-12-24T19:03:47.980Z,81.84
2022-12-24T19:06:14.548Z,83.93
2022-12-24T19:08:59.215Z,82.05
2022-12-24T19:11:27.836Z,81.79
2022-12-24T19:13:54.409Z,82.09
2022-12-24T19:16:21.598Z,83.54
2022-12-24T19:18:48.328Z,82.61
2022-12-24T19:21:17.208Z,82.63
2022-12-24T19:23:44.816Z,83.13
2022-12-24T19:26:12.589Z,82.12
2022-12-24T19:28:39.303Z,81.67
2022-12-24T19:31:10.940Z,82.33
2022-12-24T19:33:44.142Z,80.83
2022-12-24T19:36:13.518Z,82.17
2022-12-24T19:38:40.449Z,82.49
2022-12-24T19:41:12.772Z,81.37
2022-12-24T19:43:47.616Z,83.05
2022-12-24T19:46:16.251Z,80.79
2022-12-24T19:48:43.595Z,82.16
2022-12-24T19:51:11.982Z,81.42
2022-12-24T19:53:39.756Z,80.20
2022-12-24T19:56:07.048Z,79.49
2022-12-24T19:58:33.574Z,80.06
2022-12-24T20:01:14.524Z,81.58
2022-12-24T20:03:42.163Z,80.88
2022-12-24T20:06:08.757Z,81.69
2022-12-24T20:08:36.665Z,81.78
2022-12-24T20:11:05.730Z,79.92
2022-12-24T20:13:33.582Z,80.04
2022-12-24T20:16:04.669Z,81.12
2022-12-24T20:18:31.354Z,80.62
2022-12-24T20:21:02.336Z,80.20
2022-12-24T20:23:28.931Z,80.80
2022-12-24T20:26:00.195Z,79.45
2022-12-24T20:28:28.161Z,80.26
2022-12-24T20:30:54.628Z,80.04
2022-12-24T20:33:21.337Z,79.56
2022-12-24T20:35:48.265Z,79.69
2022-12-24T20:38:14.999Z,79.57
2022-12-24T20:40:42.847Z,78.16
2022-12-24T20:43:09.672Z,79.34
2022-12-24T20:45:36.525Z,79.14
2022-12-24T20:48:03.116Z,79.72
2022-12-24T20:50:29.548Z,79.84
2022-12-24T20:52:56.064Z,80.45
2022-12-24T20:55:22.601Z,79.85
2022-12-24T20:57:49.813Z,79.66
2022-12-24T21:00:17.379Z,79.95
2022-12-24T21:02:46.691Z,80.06
2022-12-24T21:05:13.479Z,79.66
2022-12-24T21:07:42.982Z,79.59
2022-12-24T21:10:11.231Z,79.81
2022-12-24T21:12:50.011Z,79.93
2022-12-24T21:15:19.127Z,80.45
2022-12-24T21:17:46.917Z,79.95
2022-12-24T21:20:14.415Z,80.53
2022-12-24T21:22:40.970Z,79.52
2022-12-24T21:25:23.811Z,79.27
2022-12-24T21:27:52.367Z,79.93
2022-12-24T21:30:19.450Z,79.34
2022-12-24T21:32:45.962Z,79.11
2022-12-24T21:35:14.494Z,80.84
2022-12-24T21:37:42.254Z,80.82
2022-12-24T21:40:09.797Z,79.61
2022-12-24T21:42:38.588Z,80.01
2022-12-24T21:45:06.215Z,80.18
2022-12-24T21:47:34.596Z,79.40
2022-12-24T21:50:19.787Z,80.04
2022-12-24T21:52:47.031Z,80.77
2022-12-24T21:55:13.521Z,81.25
2022-12-24T21:57:55.469Z,82.32
2022-12-24T22:00:22.166Z,81.69
2022-12-24T22:02:50.593Z,79.43
2022-12-24T22:05:17.574Z,80.54
2022-12-24T22:08:02.935Z,79.82
2022-12-24T22:10:48.091Z,81.32
2022-12-24T22:13:16.332Z,80.83
2022-12-24T22:15:46.933Z,80.10
2022-12-24T22:18:16.048Z,80.37
2022-12-24T22:20:44.985Z,80.26
2022-12-24T22:23:13.444Z,80.08
2022-12-24T22:25:42.608Z,82.08
2022-12-24T22:28:09.494Z,82.50
2022-12-24T22:30:38.973Z,81.62
2022-12-24T22:33:07.761Z,82.47
2022-12-24T22:35:39.492Z,82.53
2022-12-24T22:38:08.086Z,81.87
2022-12-24T22:40:35.556Z,82.97
2022-12-24T22:43:03.105Z,83.79
2022-12-24T22:45:31.552Z,82.05
2022-12-24T22:47:58.302Z,80.09
2022-12-24T22:50:25.575Z,82.78
2022-12-24T22:52:53.641Z,81.96
2022-12-24T22:55:21.350Z,81.00
2022-12-24T22:57:48.856Z,81.10
2022-12-24T23:00:36.839Z,80.60
2022-12-24T23:03:04.560Z,81.74
2022-12-24T23:05:31.245Z,81.30
2022-12-24T23:07:57.738Z,81.96
2022-12-24T23:10:24.405Z,81.70
2022-12-24T23:13:14.565Z,81.22
2022-12-24T23:15:41.711Z,80.87
2022-12-24T23:18:08.733Z,82.16
2022-12-24T23:20:42.345Z,81.91
2022-12-24T23:23:09.443Z,82.31
2022-12-24T23:25:35.992Z,83.07
2022-12-24T23:28:02.711Z,82.75
2022-12-24T23:30:29.138Z,83.01
2022-12-24T23:32:55.742Z,81.80
2022-12-24T23:35:22.202Z,82.48
2022-12-24T23:37:48.652Z,81.65
2022-12-24T23:40:15.123Z,82.09
2022-12-24T23:42:41.665Z,80.07
2022-12-24T23:45:08.718Z,81.83
2022-12-24T23:47:35.617Z,81.90
2022-12-24T23:50:02.179Z,80.47
2022-12-24T23:52:28.632Z,82.05
2022-12-24T23:54:55.136Z,82.36
2022-12-24T23:57:21.641Z,82.97
2022-12-24T23:59:48.139Z,82.62
